createdAt,value
2022-12-28T00:08:34.091Z,5.7
2022-12-28T00:18:36.503Z,5.6
2022-12-28T00:28:38.172Z,5.7
2022-12-28T00:48:43.176Z,5.7
2022-12-28T00:58:45.756Z,5.7
2022-12-28T01:08:47.914Z,5.7
2022-12-28T01:18:49.908Z,5.4
2022-12-28T01:28:52.361Z,5.5
2022-12-28T01:38:54.709Z,5.4
2022-12-28T01:48:56.479Z,5.4
2022-12-28T01:58:58.459Z,5.5
2022-12-28T02:09:01.103Z,5.6
2022-12-28T02:19:03.566Z,5.5
2022-12-28T02:29:06.087Z,5.5
2022-12-28T02:39:08.183Z,5.5
2022-12-28T02:49:10.040Z,5.9
2022-12-28T02:59:11.798Z,6.2
2022-12-28T03:09:14.169Z,6.4
2022-12-28T03:19:16.539Z,6.6
2022-12-28T03:29:18.369Z,6.5
2022-12-28T03:39:20.546Z,6.1
2022-12-28T03:49:23.119Z,5.9
2022-12-28T03:59:25.543Z,5.8
2022-12-28T04:09:27.861Z,5.8
2022-12-28T04:19:29.640Z,6
2022-12-28T04:29:31.402Z,6
2022-12-28T04:39:54.475Z,6.1
2022-12-28T04:49:35.113Z,6
2022-12-28T04:59:37.189Z,5.9
2022-12-28T05:09:39.394Z,5.8
2022-12-28T05:19:41.587Z,5.8
2022-12-28T05:29:43.640Z,5.9
2022-12-28T05:39:45.616Z,5.9
2022-12-28T05:49:47.789Z,5.9
2022-12-28T05:59:49.651Z,5.8
2022-12-28T06:09:51.616Z,5.9
2022-12-28T06:29:55.701Z,6
2022-12-28T06:39:57.891Z,6.1
2022-12-28T06:49:59.765Z,6
2022-12-28T07:00:01.884Z,6.1
2022-12-28T07:10:04.184Z,6.1
2022-12-28T07:20:06.775Z,6.2
2022-12-28T07:30:08.635Z,6.3
2022-12-28T07:40:10.491Z,6.4
2022-12-28T07:50:12.809Z,6.6
2022-12-28T08:10:17.324Z,6.9
2022-12-28T08:20:19.169Z,7
2022-12-28T08:30:21.483Z,7
2022-12-28T08:40:23.271Z,7
2022-12-28T08:50:31.309Z,7.1
2022-12-28T09:00:27.710Z,7.1
2022-12-28T09:20:43.165Z,7.4
2022-12-28T09:30:41.531Z,7.4
2022-12-28T09:40:43.367Z,7.5
2022-12-28T09:50:45.951Z,7.6
2022-12-28T10:00:48.217Z,8
2022-12-28T10:10:50.532Z,8.1
2022-12-28T10:20:52.411Z,8.3
2022-12-28T10:30:55.096Z,8.5
2022-12-28T10:40:57.550Z,8.7
2022-12-28T10:50:59.758Z,8.7
2022-12-28T11:01:01.796Z,8.8
2022-12-28T11:11:03.716Z,8.9
2022-12-28T11:21:05.487Z,9
2022-12-28T11:31:07.269Z,9
2022-12-28T11:41:09.864Z,9.1
2022-12-28T11:51:12.422Z,9.2
2022-12-28T12:01:14.611Z,9.3
2022-12-28T12:11:16.305Z,9.1
2022-12-28T12:21:18.095Z,8.8
2022-12-28T12:31:20.275Z,8.3
2022-12-28T12:41:22.695Z,8.1
2022-12-28T12:51:24.666Z,8.1
2022-12-28T13:01:27.135Z,8.1
2022-12-28T13:11:29.309Z,8.3
2022-12-28T13:21:31.518Z,8.4
2022-12-28T13:31:33.357Z,8.4
2022-12-28T13:51:38.351Z,8.3
2022-12-28T14:01:41.060Z,8.2
2022-12-28T14:11:43.282Z,8.3
2022-12-28T14:21:45.163Z,8.3
2022-12-28T14:31:47.264Z,8.4
2022-12-28T14:41:49.443Z,8.5
2022-12-28T14:51:51.533Z,8.4
2022-12-28T15:01:53.976Z,8.3
2022-12-28T15:11:55.999Z,8.4
2022-12-28T15:21:57.968Z,8.4
2022-12-28T15:32:00.465Z,8.4
2022-12-28T15:42:02.213Z,8.5
2022-12-28T15:52:04.731Z,8.5
2022-12-28T16:02:07.339Z,8.6
2022-12-28T16:12:08.912Z,8.8
2022-12-28T16:22:11.437Z,8.8
2022-12-28T16:32:13.211Z,8.8
2022-12-28T16:42:14.898Z,8.9
2022-12-28T16:52:16.703Z,8.8
2022-12-28T17:02:18.954Z,8.8
2022-12-28T17:12:21.175Z,9
2022-12-28T17:22:23.096Z,8.9
2022-12-28T17:32:25.361Z,8.7
2022-12-28T17:42:27.350Z,8.6
2022-12-28T17:52:29.732Z,8.7
2022-12-28T18:02:32.445Z,8.4
2022-12-28T18:12:34.419Z,8.3
2022-12-28T18:22:36.975Z,8
2022-12-28T18:32:39.177Z,8.1
2022-12-28T18:42:41.230Z,7.9
2022-12-28T18:52:43.334Z,7.8
2022-12-28T19:02:45.586Z,7.8
2022-12-28T19:12:47.428Z,7.8
2022-12-28T19:22:50.065Z,7.8
2022-12-28T19:32:52.641Z,7.6
2022-12-28T19:42:54.928Z,7.7
2022-12-28T19:52:57.323Z,7.8
2022-12-28T20:02:59.029Z,7.7
2022-12-28T20:13:00.812Z,7.9
2022-12-28T20:23:02.773Z,7.8
2022-12-28T20:33:04.606Z,8
2022-12-28T20:43:07.079Z,8.2
2022-12-28T20:53:09.115Z,8.5
2022-12-28T21:03:11.386Z,8.6
2022-12-28T21:13:13.910Z,8.7
2022-12-28T21:23:16.550Z,8.7
2022-12-28T21:33:18.674Z,8.8
2022-12-28T21:43:21.358Z,8.7
2022-12-28T21:53:23.909Z,8.8
2022-12-28T22:03:26.230Z,8.9
2022-12-28T22:13:28.623Z,8.9
2022-12-28T22:23:34.482Z,9.1
2022-12-28T22:33:33.498Z,9.3
2022-12-28T22:43:35.570Z,9.1
2022-12-28T22:53:37.380Z,8.9
2022-12-28T23:03:39.451Z,9
2022-12-28T23:13:41.432Z,8.9
2022-12-28T23:33:45.261Z,9.2
2022-12-28T23:43:47.401Z,9.3
2022-12-28T23:53:49.680Z,9.5
